createdAt,value
2023-01-06T00:01:33.684Z,97.80
2023-01-06T00:04:03.010Z,97.90
2023-01-06T00:06:31.091Z,97.90
2023-01-06T00:09:02.352Z,97.90
2023-01-06T00:11:30.741Z,98.00
2023-01-06T00:13:59.789Z,98.00
2023-01-06T00:16:27.984Z,97.90
2023-01-06T00:19:00.400Z,97.90
2023-01-06T00:21:28.728Z,97.90
2023-01-06T00:23:56.877Z,98.00
2023-01-06T00:26:24.556Z,97.90
2023-01-06T00:28:56.783Z,98.10
2023-01-06T00:31:26.863Z,98.00
2023-01-06T00:33:59.107Z,97.90
2023-01-06T00:36:26.659Z,97.90
2023-01-06T00:38:54.170Z,98.00
2023-01-06T00:41:57.402Z,98.00
2023-01-06T00:44:25.153Z,97.90
2023-01-06T00:46:52.717Z,97.80
2023-01-06T00:49:21.479Z,97.90
2023-01-06T00:51:49.264Z,97.90
2023-01-06T00:54:17.668Z,97.90
2023-01-06T00:56:49.772Z,98.30
2023-01-06T00:59:21.301Z,98.00
2023-01-06T01:01:51.317Z,98.00
2023-01-06T01:04:20.599Z,98.00
2023-01-06T01:06:49.539Z,98.00
2023-01-06T01:09:25.054Z,98.10
2023-01-06T01:12:10.772Z,98.20
2023-01-06T01:14:47.120Z,98.00
2023-01-06T01:17:33.155Z,98.00
2023-01-06T01:20:01.297Z,98.00
2023-01-06T01:22:31.244Z,98.10
2023-01-06T01:24:58.894Z,98.20
2023-01-06T01:27:29.262Z,98.20
2023-01-06T01:29:56.871Z,98.30
2023-01-06T01:32:24.290Z,98.10
2023-01-06T01:34:51.923Z,98.20
2023-01-06T01:37:20.531Z,98.30
2023-01-06T01:39:49.095Z,98.40
2023-01-06T01:42:21.039Z,98.40
2023-01-06T01:45:17.064Z,98.60
2023-01-06T01:48:07.237Z,98.50
2023-01-06T01:50:49.682Z,98.60
2023-01-06T01:53:23.064Z,98.70
2023-01-06T01:55:53.571Z,98.80
2023-01-06T01:58:27.801Z,98.80
2023-01-06T02:00:56.215Z,98.90
2023-01-06T02:03:25.659Z,98.90
2023-01-06T02:06:01.411Z,99.20
2023-01-06T02:08:45.995Z,99.10
2023-01-06T02:11:13.459Z,99.10
2023-01-06T02:13:44.441Z,99.10
2023-01-06T02:16:19.890Z,99.20
2023-01-06T02:19:12.210Z,99.20
2023-01-06T02:22:02.003Z,99.30
2023-01-06T02:24:41.383Z,99.50
2023-01-06T02:27:46.542Z,99.40
2023-01-06T02:30:38.857Z,99.40
2023-01-06T02:33:17.104Z,99.50
2023-01-06T02:35:56.890Z,99.60
2023-01-06T02:38:51.896Z,99.90
2023-01-06T02:41:50.058Z,99.90
2023-01-06T02:44:27.886Z,99.90
2023-01-06T02:47:20.983Z,99.90
2023-01-06T02:49:59.296Z,99.90
2023-01-06T02:52:52.675Z,99.90
2023-01-06T02:55:39.974Z,99.90
2023-01-06T02:58:45.328Z,99.90
2023-01-06T03:01:23.663Z,99.90
2023-01-06T03:03:53.365Z,99.90
2023-01-06T03:06:27.801Z,99.90
2023-01-06T03:08:57.000Z,99.90
2023-01-06T03:11:28.855Z,99.90
2023-01-06T03:14:02.584Z,99.90
2023-01-06T03:16:30.263Z,99.90
2023-01-06T03:18:58.522Z,99.90
2023-01-06T03:21:35.560Z,99.90
2023-01-06T03:24:07.120Z,99.90
2023-01-06T03:26:36.072Z,99.90
2023-01-06T03:29:10.218Z,99.90
2023-01-06T03:32:04.313Z,99.90
2023-01-06T03:34:41.089Z,99.90
2023-01-06T03:37:43.958Z,99.90
2023-01-06T03:40:40.155Z,99.90
2023-01-06T03:43:37.818Z,99.90
2023-01-06T03:46:22.489Z,99.90
2023-01-06T03:49:03.317Z,99.90
2023-01-06T03:51:55.409Z,99.90
2023-01-06T03:54:40.087Z,99.90
2023-01-06T03:57:44.960Z,99.90
2023-01-06T04:00:28.293Z,99.90
2023-01-06T04:03:02.269Z,99.90
2023-01-06T04:05:30.692Z,99.90
2023-01-06T04:08:00.537Z,99.90
2023-01-06T04:10:28.833Z,99.90
2023-01-06T04:12:59.226Z,99.90
2023-01-06T04:15:32.858Z,99.90
2023-01-06T04:18:09.930Z,99.90
2023-01-06T04:20:40.827Z,99.90
2023-01-06T04:23:32.932Z,99.90
2023-01-06T04:26:01.962Z,99.90
2023-01-06T04:28:41.581Z,99.90
2023-01-06T04:31:10.060Z,99.90
2023-01-06T04:33:37.590Z,99.90
2023-01-06T04:36:07.042Z,99.90
2023-01-06T04:38:35.659Z,99.90
2023-01-06T04:41:03.156Z,99.90
2023-01-06T04:43:30.600Z,99.90
2023-01-06T04:46:01.862Z,99.90
2023-01-06T04:48:29.308Z,99.90
2023-01-06T04:51:07.988Z,99.90
2023-01-06T04:53:37.033Z,99.90
2023-01-06T04:56:06.292Z,99.90
2023-01-06T04:58:35.279Z,99.80
2023-01-06T05:01:05.660Z,99.90
2023-01-06T05:03:33.569Z,99.70
2023-01-06T05:06:09.665Z,99.60
2023-01-06T05:08:39.130Z,99.50
2023-01-06T05:11:10.952Z,99.40
2023-01-06T05:13:38.716Z,99.30
2023-01-06T05:16:15.238Z,99.20
2023-01-06T05:18:54.303Z,99.10
2023-01-06T05:21:24.792Z,99.00
2023-01-06T05:23:53.084Z,98.90
2023-01-06T05:26:26.243Z,99.00
2023-01-06T05:28:54.811Z,98.90
2023-01-06T05:31:22.766Z,98.90
2023-01-06T05:33:50.331Z,98.90
2023-01-06T05:36:18.729Z,98.80
2023-01-06T05:38:54.366Z,98.80
2023-01-06T05:41:21.739Z,98.80
2023-01-06T05:43:49.385Z,98.70
2023-01-06T05:46:16.730Z,98.60
2023-01-06T05:48:44.371Z,98.60
2023-01-06T05:51:14.318Z,98.60
2023-01-06T05:53:43.488Z,98.70
2023-01-06T05:56:14.782Z,98.50
2023-01-06T05:58:45.561Z,99.00
2023-01-06T06:01:24.753Z,98.50
2023-01-06T06:03:53.276Z,98.50
2023-01-06T06:06:22.697Z,98.40
2023-01-06T06:08:50.400Z,98.30
2023-01-06T06:11:19.956Z,98.20
2023-01-06T06:13:49.845Z,98.20
2023-01-06T06:16:19.135Z,98.00
2023-01-06T06:18:54.551Z,98.00
2023-01-06T06:21:25.384Z,97.80
2023-01-06T06:23:54.229Z,97.60
2023-01-06T06:26:22.185Z,97.50
2023-01-06T06:28:49.601Z,97.60
2023-01-06T06:31:20.633Z,97.40
2023-01-06T06:33:51.220Z,97.40
2023-01-06T06:36:18.845Z,97.20
2023-01-06T06:38:48.519Z,97.30
2023-01-06T06:41:16.568Z,97.20
2023-01-06T06:43:44.680Z,97.20
2023-01-06T06:46:12.307Z,97.20
2023-01-06T06:48:40.061Z,97.10
2023-01-06T06:51:13.036Z,97.40
2023-01-06T06:53:41.207Z,97.20
2023-01-06T06:56:10.056Z,97.30
2023-01-06T06:58:38.487Z,97.40
2023-01-06T07:01:11.664Z,97.50
2023-01-06T07:03:39.591Z,97.30
2023-01-06T07:06:10.071Z,97.30
2023-01-06T07:08:37.505Z,97.40
2023-01-06T07:11:05.203Z,97.30
2023-01-06T07:13:32.635Z,97.30
2023-01-06T07:16:00.505Z,97.30
2023-01-06T07:18:27.845Z,97.50
2023-01-06T07:20:55.226Z,97.30
2023-01-06T07:23:23.471Z,97.20
2023-01-06T07:25:55.458Z,97.30
2023-01-06T07:28:23.362Z,97.20
2023-01-06T07:30:52.475Z,97.20
2023-01-06T07:33:20.544Z,97.10
2023-01-06T07:35:48.128Z,97.20
2023-01-06T07:38:15.527Z,97.10
2023-01-06T07:40:42.959Z,97.10
2023-01-06T07:43:11.480Z,97.10
2023-01-06T07:45:38.913Z,97.30
2023-01-06T07:48:06.995Z,97.10
2023-01-06T07:50:34.355Z,97.00
2023-01-06T07:53:02.880Z,97.00
2023-01-06T07:55:30.507Z,97.00
2023-01-06T07:57:58.878Z,97.10
2023-01-06T08:00:26.550Z,96.90
2023-01-06T08:02:54.273Z,96.70
2023-01-06T08:05:21.813Z,96.70
2023-01-06T08:07:49.676Z,96.60
2023-01-06T08:10:17.059Z,96.60
2023-01-06T08:12:44.475Z,96.50
2023-01-06T08:15:11.927Z,96.40
2023-01-06T08:17:39.277Z,96.50
2023-01-06T08:20:07.468Z,96.40
2023-01-06T08:22:34.760Z,96.50
2023-01-06T08:25:02.176Z,96.30
2023-01-06T08:27:29.545Z,96.40
2023-01-06T08:29:56.949Z,96.30
2023-01-06T08:32:24.325Z,96.20
2023-01-06T08:34:51.816Z,96.30
2023-01-06T08:37:19.677Z,96.30
2023-01-06T08:39:48.282Z,96.20
2023-01-06T08:42:15.782Z,96.20
2023-01-06T08:44:43.234Z,96.20
2023-01-06T08:47:10.897Z,96.00
2023-01-06T08:52:34.821Z,96.10
2023-01-06T08:55:02.219Z,96.00
2023-01-06T08:57:29.665Z,96.00
2023-01-06T08:59:56.978Z,96.00
2023-01-06T09:02:27.168Z,96.00
2023-01-06T09:04:54.601Z,96.10
2023-01-06T09:07:22.684Z,96.00
2023-01-06T09:09:50.126Z,95.80
2023-01-06T09:12:20.550Z,95.80
2023-01-06T09:14:47.928Z,95.80
2023-01-06T09:17:15.366Z,95.70
2023-01-06T09:19:43.608Z,95.80
2023-01-06T09:22:11.425Z,95.50
2023-01-06T09:24:38.825Z,95.70
2023-01-06T09:27:06.133Z,95.70
2023-01-06T09:29:34.367Z,95.60
2023-01-06T09:32:03.404Z,95.40
2023-01-06T09:34:34.956Z,95.50
2023-01-06T09:37:31.848Z,95.40
2023-01-06T09:39:59.833Z,95.10
2023-01-06T09:42:52.294Z,95.10
2023-01-06T09:49:13.585Z,95.40
2023-01-06T09:51:54.532Z,95.10
2023-01-06T09:54:54.605Z,95.10
2023-01-06T09:58:00.248Z,95.10
2023-01-06T10:00:57.960Z,95.20
2023-01-06T10:03:33.521Z,95.00
2023-01-06T10:06:33.525Z,94.80
2023-01-06T10:09:20.115Z,94.70
2023-01-06T10:14:50.794Z,94.60
2023-01-06T10:17:47.650Z,94.50
2023-01-06T10:20:33.920Z,94.60
2023-01-06T10:23:43.172Z,94.50
2023-01-06T10:26:48.161Z,94.50
2023-01-06T10:33:40.450Z,94.40
2023-01-06T10:40:10.520Z,94.20
2023-01-06T10:47:17.586Z,94.40
2023-01-06T10:49:57.649Z,94.30
2023-01-06T10:52:33.508Z,94.40
2023-01-06T10:58:45.871Z,94.30
2023-01-06T11:14:05.868Z,94.20
2023-01-06T11:20:04.683Z,93.50
2023-01-06T11:23:07.747Z,93.40
2023-01-06T11:25:44.202Z,93.60
2023-01-06T11:28:30.260Z,93.00
2023-01-06T11:34:57.533Z,93.10
2023-01-06T11:37:47.477Z,93.20
2023-01-06T11:44:39.057Z,93.00
2023-01-06T12:27:02.147Z,92.50
2023-01-06T12:29:31.849Z,92.50
2023-01-06T12:53:32.165Z,92.50
2023-01-06T12:56:06.902Z,92.70
2023-01-06T12:58:47.240Z,92.70
2023-01-06T13:01:17.898Z,92.70
2023-01-06T13:04:07.243Z,92.70
2023-01-06T13:07:02.853Z,92.90
2023-01-06T13:09:59.429Z,92.80
2023-01-06T13:12:36.703Z,92.80
2023-01-06T13:15:23.238Z,92.70
2023-01-06T13:18:14.585Z,92.90
2023-01-06T13:20:51.040Z,92.80
2023-01-06T13:24:00.268Z,92.80
2023-01-06T13:27:05.666Z,92.90
2023-01-06T13:29:50.140Z,92.80
2023-01-06T13:33:03.495Z,92.90
2023-01-06T14:07:06.947Z,92.80
2023-01-06T14:09:47.363Z,92.80
2023-01-06T14:28:41.808Z,92.20
2023-01-06T14:31:39.052Z,92.20
2023-01-06T14:34:10.889Z,92.50
2023-01-06T14:36:39.555Z,92.40
2023-01-06T14:39:23.191Z,92.40
2023-01-06T14:42:04.433Z,92.40
2023-01-06T14:45:03.618Z,92.50
2023-01-06T14:47:34.356Z,92.90
2023-01-06T14:50:09.658Z,92.50
2023-01-06T14:52:42.570Z,92.40
2023-01-06T14:55:15.397Z,92.50
2023-01-06T14:57:42.959Z,92.50
2023-01-06T15:00:24.260Z,92.40
2023-01-06T15:02:55.165Z,92.40
2023-01-06T15:05:35.080Z,92.30
2023-01-06T15:08:06.048Z,92.40
2023-01-06T15:10:55.487Z,92.50
2023-01-06T15:13:32.213Z,92.50
2023-01-06T15:16:15.513Z,92.50
2023-01-06T15:18:44.487Z,92.50
2023-01-06T15:21:13.493Z,92.80
2023-01-06T15:23:47.447Z,92.60
2023-01-06T15:26:19.166Z,92.70
2023-01-06T15:29:07.450Z,92.70
2023-01-06T15:31:37.864Z,92.80
2023-01-06T15:34:29.679Z,92.90
2023-01-06T15:36:57.881Z,93.00
2023-01-06T15:39:33.582Z,92.80
2023-01-06T15:42:04.317Z,92.90
2023-01-06T15:44:36.517Z,92.90
2023-01-06T15:47:13.378Z,92.80
2023-01-06T15:49:50.900Z,92.70
2023-01-06T15:52:32.814Z,93.00
2023-01-06T15:55:03.375Z,93.00
2023-01-06T15:57:34.851Z,93.10
2023-01-06T16:00:18.371Z,93.10
2023-01-06T16:02:48.115Z,93.10
2023-01-06T16:05:32.326Z,93.10
2023-01-06T16:08:05.685Z,93.10
2023-01-06T16:10:37.969Z,93.10
2023-01-06T16:13:13.918Z,93.10
2023-01-06T16:15:45.652Z,93.10
2023-01-06T16:18:14.995Z,93.00
2023-01-06T16:20:42.761Z,93.20
2023-01-06T16:23:26.284Z,92.90
2023-01-06T16:26:06.363Z,93.00
2023-01-06T16:28:34.053Z,93.00
2023-01-06T16:31:10.640Z,93.10
2023-01-06T16:33:45.706Z,93.20
2023-01-06T16:36:15.455Z,93.10
2023-01-06T16:38:43.225Z,93.30
2023-01-06T16:41:18.397Z,93.20
2023-01-06T16:43:46.535Z,93.20
2023-01-06T16:46:22.244Z,93.30
2023-01-06T16:48:52.577Z,93.30
2023-01-06T16:51:20.279Z,93.10
2023-01-06T16:53:48.411Z,93.20
2023-01-06T16:56:22.564Z,93.20
2023-01-06T16:58:51.988Z,93.30
2023-01-06T17:01:22.019Z,93.20
2023-01-06T17:04:00.431Z,93.20
2023-01-06T17:09:40.128Z,93.30
2023-01-06T17:12:34.986Z,93.30
2023-01-06T17:15:02.996Z,93.30
2023-01-06T17:17:30.894Z,93.40
2023-01-06T17:19:58.563Z,93.20
2023-01-06T17:22:30.525Z,93.40
2023-01-06T17:25:08.751Z,93.70
2023-01-06T17:27:36.108Z,93.50
2023-01-06T17:30:11.131Z,93.40
2023-01-06T17:32:46.811Z,93.40
2023-01-06T17:35:32.397Z,93.60
2023-01-06T17:38:02.474Z,93.50
2023-01-06T17:40:38.327Z,93.70
2023-01-06T17:43:22.934Z,93.40
2023-01-06T17:45:50.785Z,93.40
2023-01-06T17:48:18.716Z,93.40
2023-01-06T17:50:50.777Z,93.70
2023-01-06T17:53:44.911Z,93.50
2023-01-06T17:56:13.014Z,93.60
2023-01-06T17:58:44.110Z,93.60
2023-01-06T18:01:31.183Z,93.60
2023-01-06T18:04:00.445Z,93.70
2023-01-06T18:06:32.215Z,93.60
2023-01-06T18:09:08.500Z,93.60
2023-01-06T18:11:39.094Z,93.60
2023-01-06T18:14:31.935Z,93.60
2023-01-06T18:17:16.477Z,93.70
2023-01-06T18:19:43.901Z,93.60
2023-01-06T18:22:19.887Z,93.50
2023-01-06T18:24:49.913Z,93.80
2023-01-06T18:27:24.801Z,93.50
2023-01-06T18:30:11.010Z,93.70
2023-01-06T18:32:38.544Z,93.60
2023-01-06T18:35:14.524Z,93.50
2023-01-06T18:37:42.757Z,93.60
2023-01-06T18:40:18.020Z,93.60
2023-01-06T18:42:49.195Z,93.60
2023-01-06T18:45:28.901Z,93.50
2023-01-06T18:48:05.770Z,93.50
2023-01-06T18:50:41.714Z,93.60
2023-01-06T18:53:15.490Z,93.20
2023-01-06T18:55:51.511Z,93.70
2023-01-06T18:58:46.983Z,93.50
2023-01-06T19:01:36.102Z,93.60
2023-01-06T19:04:29.432Z,93.60
2023-01-06T19:07:03.042Z,93.60
2023-01-06T19:09:38.292Z,93.60
2023-01-06T19:12:08.464Z,93.50
2023-01-06T19:14:41.760Z,93.60
2023-01-06T19:17:33.535Z,93.60
2023-01-06T19:20:10.275Z,93.60
2023-01-06T19:22:38.416Z,93.60
2023-01-06T19:25:32.504Z,93.80
2023-01-06T19:28:11.034Z,93.60
2023-01-06T19:30:45.731Z,93.60
2023-01-06T19:33:24.532Z,93.30
2023-01-06T19:52:39.294Z,93.60
2023-01-06T19:55:15.241Z,93.60
2023-01-06T19:57:47.513Z,93.80
2023-01-06T20:09:44.564Z,93.70
2023-01-06T20:12:12.763Z,93.80
2023-01-06T20:14:40.230Z,94.10
2023-01-06T20:17:08.549Z,93.80
2023-01-06T20:19:35.852Z,94.00
2023-01-06T20:22:03.301Z,93.90
2023-01-06T20:24:30.718Z,94.10
2023-01-06T20:26:58.051Z,94.10
2023-01-06T20:29:25.406Z,93.90
2023-01-06T20:31:52.934Z,94.10
2023-01-06T20:34:20.282Z,93.90
2023-01-06T20:36:48.752Z,94.00
2023-01-06T20:39:16.121Z,93.90
2023-01-06T20:41:43.515Z,94.00
2023-01-06T20:44:13.054Z,94.10
2023-01-06T20:46:40.455Z,94.10
2023-01-06T20:49:08.384Z,94.00
2023-01-06T20:51:35.697Z,94.00
2023-01-06T20:54:03.096Z,94.20
2023-01-06T21:05:54.274Z,94.20
2023-01-06T21:08:25.092Z,94.20
2023-01-06T21:11:23.845Z,93.90
2023-01-06T21:20:12.843Z,94.10
2023-01-06T21:25:52.261Z,94.20
2023-01-06T21:28:21.929Z,93.80
2023-01-06T21:30:53.044Z,94.10
2023-01-06T21:33:21.925Z,94.00
2023-01-06T21:36:16.166Z,94.00
2023-01-06T21:38:44.680Z,93.80
2023-01-06T21:41:34.733Z,94.10
2023-01-06T21:47:05.129Z,94.00
2023-01-06T21:49:36.525Z,94.20
2023-01-06T21:52:09.126Z,94.20
2023-01-06T21:54:39.287Z,94.30
2023-01-06T22:00:17.120Z,94.50
2023-01-06T22:02:48.516Z,94.20
2023-01-06T22:18:26.721Z,94.50
2023-01-06T22:23:58.848Z,94.60
2023-01-06T22:26:28.794Z,94.40
2023-01-06T22:29:05.249Z,94.50
2023-01-06T22:34:43.488Z,94.70
2023-01-06T22:37:14.124Z,94.40
2023-01-06T22:45:58.878Z,94.80
2023-01-06T22:48:31.644Z,94.60
2023-01-06T22:51:12.120Z,94.60
2023-01-06T22:54:00.861Z,94.60
2023-01-06T22:56:41.785Z,94.50
2023-01-06T22:59:17.768Z,94.70
2023-01-06T23:14:30.721Z,94.70
2023-01-06T23:17:07.125Z,94.40
2023-01-06T23:35:50.316Z,94.60
2023-01-06T23:38:19.785Z,94.40
2023-01-06T23:47:16.896Z,94.60
2023-01-06T23:49:50.271Z,94.50
2023-01-06T23:52:28.101Z,94.40
